BIENTÔT MET'MAP
version 2.0 !

Prévue avant fin octobre,
la nouvelle version sera
plus belle, plus complète
et hébergée sur un serveur
3 fois plus puissant...
et toujours gratuite !


Pas compatible ?
Essayez la version Mobile !

SE CONNECTER : | S'inscrire | Disclaimer | Découvrir Orbifly |
Code OACI :
Lgende : VFR VFR Marginal IFR IFR Intensif IFR Trs Intensif
Visi :
Plafond :
>= 8 km
>= 3000ft
5 8 km
1000 3000 ft
1500m 5 km
500 1000 ft
800 1500m
200 500 ft
< 800m
< 200 ft

METAR - LIRH Frosinone Military Airport - 03 Dec 2020 20:06 UTC
Data Sources :     NOAA   


- Altitude de l'aérodrome : 0 ft
- Code IATA : QFR
- Pas de NOTAMs connus.


LIRH - Frosinone Military Airport

Dernier METAR connu : 2015/08/11 07:55 LIRH 110755Z 08003KT 9999 FEW030 FEW035CB SCT040 20/16 Q1012
TAF TAF LIRH
Valide du 03 à 15h jusqu'au 04 à 00h UTC


031400Z 0315/0324 VRB03KT 7000 SCT035
TEMPO 0318/0320 28006KT

Source NOAA


MET'MAP, la Météo Aéronautique d'un coup d'oeil ! - Copyright ORBIFLY Décembre 2007

Développement & Programmation : Alexandra Zaïnal
Co-Développement : Marc-Olivier Méhu
Soutien technique & logistique : Manuel Goepfert
Conception & Financement : Baudouin d'Aumeries